Time;durP1;ratioP1;P1;durP2;ratioP2;P2;SDS_P1;SDS_P2;PMS_P1;PMS_P2;Temp;Humidity;BMP_temperature;BMP_pressure;BME280_temperature;BME280_humidity;BME280_pressure;Samples;Min_cycle;Max_cycle;Signal;HPM_P1;HPM_P2
2023/07/21 00:00:58;;;;;;;4.75;2.53;;;;;;;29.13;39.35;98312.59;5055671;28;20118;-74
2023/07/21 00:03:24;;;;;;;6.20;2.70;;;;;;;29.08;39.65;98305.28;5071442;28;20519;-74
2023/07/21 00:05:49;;;;;;;8.75;2.80;;;;;;;29.07;39.64;98306.38;5071932;28;20035;-74
2023/07/21 00:08:15;;;;;;;6.35;2.60;;;;;;;29.03;39.53;98314.13;5038486;28;20472;-74
2023/07/21 00:10:40;;;;;;;8.80;3.00;;;;;;;28.95;39.58;98303.78;5072870;28;20052;-74
2023/07/21 00:13:06;;;;;;;7.75;2.83;;;;;;;28.87;39.59;98302.31;5071703;28;20052;-66
2023/07/21 00:15:32;;;;;;;10.23;2.90;;;;;;;28.85;39.47;98309.81;5073005;28;20486;-66
2023/07/21 00:17:58;;;;;;;7.72;2.90;;;;;;;28.83;39.25;98289.66;5071853;28;20029;-75
2023/07/21 00:20:24;;;;;;;6.25;2.40;;;;;;;28.84;39.29;98296.63;5038152;28;20390;-75
2023/07/21 00:22:50;;;;;;;7.68;2.90;;;;;;;28.82;39.68;98288.03;5071267;28;20036;-75
2023/07/21 00:25:15;;;;;;;6.97;2.92;;;;;;;28.84;39.18;98294.78;5037997;28;20368;-75
2023/07/21 00:27:42;;;;;;;7.15;2.45;;;;;;;28.87;39.72;98294.25;5054456;28;20051;-74
2023/07/21 00:30:07;;;;;;;6.72;2.97;;;;;;;28.86;39.68;98294.50;5070732;28;20029;-75
2023/07/21 00:32:34;;;;;;;5.25;2.70;;;;;;;28.85;39.30;98282.16;5071302;28;20028;-73
2023/07/21 00:35:00;;;;;;;6.88;2.70;;;;;;;28.84;39.38;98281.34;5071728;28;20390;-74
2023/07/21 00:37:26;;;;;;;5.03;2.60;;;;;;;28.86;39.46;98291.81;5054493;28;20043;-75
2023/07/21 00:39:51;;;;;;;9.82;3.17;;;;;;;28.83;39.41;98293.16;5071547;28;20025;-74
2023/07/21 00:42:17;;;;;;;8.45;2.90;;;;;;;28.84;39.24;98289.41;5054086;28;20047;-75
2023/07/21 00:44:42;;;;;;;8.25;3.00;;;;;;;28.82;39.32;98285.34;5038103;28;20111;-73
2023/07/21 00:47:08;;;;;;;5.20;2.70;;;;;;;28.83;39.37;98284.28;5070733;28;20488;-74
2023/07/21 00:49:33;;;;;;;6.95;2.78;;;;;;;28.79;39.26;98281.25;5037877;28;20028;-75
2023/07/21 00:51:59;;;;;;;5.88;2.55;;;;;;;28.82;39.19;98288.03;5071114;28;20029;-75
2023/07/21 00:54:24;;;;;;;11.00;2.90;;;;;;;28.82;39.22;98288.03;5053906;28;20545;-74
2023/07/21 00:56:50;;;;;;;7.53;2.78;;;;;;;28.80;38.91;98277.53;5070337;28;20051;-74
2023/07/21 00:59:17;;;;;;;8.52;2.55;;;;;;;28.79;38.94;98283.16;5054586;28;20032;-75
2023/07/21 01:01:42;;;;;;;9.13;3.05;;;;;;;28.76;38.77;98286.31;5054259;28;20036;-73
2023/07/21 01:04:08;;;;;;;6.20;2.65;;;;;;;28.79;39.08;98300.06;5054064;28;20059;-75
2023/07/21 01:06:34;;;;;;;8.23;3.05;;;;;;;28.79;39.06;98286.63;5074394;28;20572;-74
2023/07/21 01:09:02;;;;;;;6.55;2.72;;;;;;;28.84;38.74;98294.78;5079545;28;20032;-73
2023/07/21 01:11:27;;;;;;;8.05;2.90;;;;;;;28.81;38.73;98279.16;5053833;28;20037;-75
2023/07/21 01:13:53;;;;;;;7.85;2.80;;;;;;;28.84;38.97;98284.03;5069937;28;20123;-68
2023/07/21 01:16:25;;;;;;;7.40;2.80;;;;;;;28.76;38.69;98284.44;5087412;28;20029;-77
2023/07/21 01:18:50;;;;;;;7.18;2.80;;;;;;;28.71;38.84;98281.69;5070843;28;20028;-68
2023/07/21 01:21:21;;;;;;;7.35;2.75;;;;;;;28.71;39.11;98276.31;5087350;28;20479;-68
2023/07/21 01:23:56;;;;;;;10.20;3.10;;;;;;;28.77;39.41;98285.28;5072698;28;20065;-68
2023/07/21 01:26:22;;;;;;;6.68;2.95;;;;;;;28.78;39.08;98285.03;5081445;28;20040;-69
2023/07/21 01:28:47;;;;;;;8.43;2.97;;;;;;;28.78;38.99;98278.81;5065216;28;20032;-69
2023/07/21 01:31:13;;;;;;;8.65;2.85;;;;;;;28.78;39.25;98282.34;5070530;28;20051;-70
2023/07/21 01:33:39;;;;;;;8.13;2.80;;;;;;;28.80;39.25;98287.47;5070295;28;20035;-75
2023/07/21 01:36:05;;;;;;;9.05;3.15;;;;;;;28.82;39.19;98291.50;5053590;28;20028;-75
2023/07/21 01:38:30;;;;;;;7.22;2.45;;;;;;;28.83;39.26;98289.66;5081130;28;20047;-75
2023/07/21 01:40:56;;;;;;;6.43;2.63;;;;;;;28.75;39.00;98284.69;5054731;28;20499;-75
2023/07/21 01:43:23;;;;;;;6.72;3.00;;;;;;;28.76;39.31;98294.38;5057435;28;20045;-76
2023/07/21 01:45:49;;;;;;;6.75;2.60;;;;;;;28.75;39.40;98290.88;5057780;28;20449;-76
2023/07/21 01:48:14;;;;;;;6.32;2.88;;;;;;;28.81;39.31;98297.97;5073810;28;20037;-76
2023/07/21 01:50:40;;;;;;;6.65;2.50;;;;;;;28.82;39.04;98302.25;5073487;28;20036;-76
2023/07/21 01:53:08;;;;;;;5.90;2.65;;;;;;;28.76;39.42;98300.56;5040969;28;20048;-76
2023/07/21 01:55:40;;;;;;;6.07;2.72;;;;;;;28.77;39.20;98307.56;5074020;28;20029;-76
2023/07/21 01:58:07;;;;;;;7.30;2.78;;;;;;;28.75;39.14;98314.22;5057249;28;20399;-75
2023/07/21 02:00:35;;;;;;;7.03;3.00;;;;;;;28.72;39.42;98312.03;5057338;28;20052;-76
2023/07/21 02:03:01;;;;;;;7.93;3.08;;;;;;;28.64;39.75;98316.78;5073731;28;20144;-76
2023/07/21 02:05:27;;;;;;;5.32;2.80;;;;;;;28.59;39.87;98322.06;5073422;28;20081;-76
2023/07/21 02:07:52;;;;;;;6.63;2.70;;;;;;;28.62;39.65;98318.91;5084670;28;20124;-76
2023/07/21 02:10:18;;;;;;;6.25;2.42;;;;;;;28.63;39.56;98331.25;5075110;28;20507;-76
2023/07/21 02:12:44;;;;;;;5.88;2.75;;;;;;;28.65;39.66;98334.50;5074234;28;20103;-75
2023/07/21 02:15:09;;;;;;;7.53;2.92;;;;;;;28.66;39.52;98328.06;5073576;28;20495;-75
2023/07/21 02:17:36;;;;;;;8.65;3.03;;;;;;;28.61;39.29;98338.75;5056838;28;20052;-75
2023/07/21 02:20:08;;;;;;;13.18;3.03;;;;;;;28.61;39.06;98337.94;5057014;28;20064;-75
2023/07/21 02:22:37;;;;;;;6.45;2.75;;;;;;;28.42;39.50;98331.97;5075348;28;20027;-75
2023/07/21 02:25:04;;;;;;;6.93;3.13;;;;;;;28.41;39.71;98331.13;5073867;28;20074;-75
2023/07/21 02:27:29;;;;;;;6.57;2.75;;;;;;;28.45;39.81;98340.34;5057130;28;20454;-76
2023/07/21 02:29:56;;;;;;;7.30;3.03;;;;;;;28.29;40.11;98341.94;5056896;28;20035;-75
2023/07/21 02:32:21;;;;;;;9.38;3.13;;;;;;;28.15;40.79;98338.75;5073533;28;20498;-75
2023/07/21 02:34:47;;;;;;;10.43;3.28;;;;;;;28.10;40.52;98349.41;5057212;28;20071;-75
2023/07/21 02:37:13;;;;;;;7.55;3.20;;;;;;;28.08;40.82;98342.63;5075104;28;20085;-75
2023/07/21 02:39:39;;;;;;;5.20;2.88;;;;;;;28.16;40.69;98355.66;5056919;28;20060;-75
2023/07/21 02:42:04;;;;;;;6.38;2.78;;;;;;;28.17;40.53;98356.47;5073508;28;20062;-76
2023/07/21 02:44:30;;;;;;;6.68;2.65;;;;;;;28.09;40.66;98355.00;5093464;28;20028;-75
2023/07/21 02:46:57;;;;;;;9.73;3.15;;;;;;;28.04;40.76;98360.25;5076247;28;20483;-75
2023/07/21 02:49:23;;;;;;;6.38;2.80;;;;;;;28.05;40.98;98351.16;5093176;28;20044;-75
2023/07/21 02:51:48;;;;;;;13.93;3.35;;;;;;;27.94;40.74;98348.31;5076559;28;20028;-75
2023/07/21 02:54:14;;;;;;;5.88;3.00;;;;;;;27.99;41.19;98363.69;5059349;28;20032;-75
2023/07/21 02:56:39;;;;;;;9.02;3.10;;;;;;;28.02;41.19;98362.38;5093416;28;20024;-75
2023/07/21 02:59:05;;;;;;;11.13;3.40;;;;;;;28.03;41.20;98362.13;5059723;28;20071;-75
2023/07/21 03:01:31;;;;;;;15.48;3.65;;;;;;;28.01;40.97;98360.75;5076001;28;20040;-75
2023/07/21 03:03:56;;;;;;;8.70;3.00;;;;;;;28.00;41.11;98359.91;5092855;28;20426;-75
2023/07/21 03:06:22;;;;;;;8.95;3.25;;;;;;;27.93;41.22;98359.22;5096219;28;20407;-75
2023/07/21 03:08:48;;;;;;;7.05;3.42;;;;;;;27.85;41.31;98352.38;5077471;28;20040;-75
2023/07/21 03:11:14;;;;;;;9.20;3.65;;;;;;;27.95;41.28;98349.91;5057162;28;20572;-75
2023/07/21 03:13:43;;;;;;;7.03;3.10;;;;;;;28.25;40.60;98351.53;5073005;28;20032;-75
2023/07/21 03:16:09;;;;;;;8.75;3.20;;;;;;;28.55;40.47;98350.41;5056315;28;20086;-75
2023/07/21 03:18:34;;;;;;;10.52;3.17;;;;;;;28.86;39.98;98351.75;5072493;28;20044;-75
2023/07/21 03:21:00;;;;;;;10.50;3.63;;;;;;;29.17;39.34;98357.56;5074346;28;20376;-75
2023/07/21 03:23:25;;;;;;;12.02;3.53;;;;;;;29.33;38.61;98358.59;5056197;28;20101;-75
2023/07/21 03:25:51;;;;;;;13.95;3.70;;;;;;;29.52;38.46;98369.06;5057103;28;20101;-75
2023/07/21 03:28:16;;;;;;;7.85;3.60;;;;;;;29.86;38.22;98368.97;5072046;28;20063;-76
2023/07/21 03:30:43;;;;;;;10.60;3.67;;;;;;;30.30;38.49;98374.28;5065111;28;20059;-75
2023/07/21 03:33:08;;;;;;;9.82;4.05;;;;;;;30.56;36.97;98374.53;5055030;28;20044;-75
2023/07/21 03:35:34;;;;;;;10.45;4.18;;;;;;;30.93;36.17;98381.81;5105630;28;20025;-75
2023/07/21 03:38:00;;;;;;;15.55;4.18;;;;;;;31.44;35.92;98386.72;5092321;28;20020;-71
2023/07/21 03:40:25;;;;;;;18.30;4.30;;;;;;;31.83;34.65;98387.19;5093245;28;20062;-70
2023/07/21 03:42:52;;;;;;;19.63;4.47;;;;;;;32.26;34.05;98392.47;5075462;28;20048;-69
2023/07/21 03:45:17;;;;;;;12.40;3.67;;;;;;;32.49;33.99;98391.16;5092413;28;20035;-69
2023/07/21 03:47:43;;;;;;;11.93;4.38;;;;;;;32.67;33.58;98391.72;5092665;28;20410;-69
2023/07/21 03:50:08;;;;;;;17.75;4.22;;;;;;;32.96;32.64;98400.09;5075084;28;20101;-71
2023/07/21 03:52:34;;;;;;;13.68;4.15;;;;;;;33.54;33.42;98405.13;5093888;28;20024;-72
2023/07/21 03:54:59;;;;;;;11.18;3.95;;;;;;;34.28;31.98;98399.94;5075701;28;20073;-73
2023/07/21 03:57:25;;;;;;;13.88;3.78;;;;;;;34.96;30.43;98395.63;5058820;28;20086;-73
2023/07/21 03:59:51;;;;;;;29.45;4.32;;;;;;;35.53;29.94;98395.09;5075250;28;20134;-72
2023/07/21 04:02:17;;;;;;;51.10;4.70;;;;;;;36.14;28.97;98401.66;5092493;28;20032;-71
2023/07/21 04:04:44;;;;;;;64.57;5.20;;;;;;;36.69;27.98;98401.91;5074024;28;20055;-74
2023/07/21 04:07:10;;;;;;;;;;;;;;;37.14;27.08;98401.44;5083297;28;20043;-74
2023/07/21 04:09:36;;;;;;;19.15;3.30;;;;;;;37.62;26.44;98403.81;5087677;28;19916;-79
2023/07/21 04:12:02;;;;;;;20.00;4.38;;;;;;;38.07;25.83;98410.53;5053397;28;20564;-80
2023/07/21 04:14:27;;;;;;;29.85;3.47;;;;;;;38.45;25.22;98410.22;5075032;28;20544;-80
2023/07/21 04:16:54;;;;;;;20.83;3.17;;;;;;;38.78;25.13;98410.78;5091961;28;20036;-80
2023/07/21 04:19:20;;;;;;;19.48;3.30;;;;;;;39.24;24.08;98411.53;5093239;28;20032;-80
2023/07/21 04:21:46;;;;;;;13.43;3.38;;;;;;;39.68;23.66;98418.00;5075113;28;20042;-80
2023/07/21 04:24:11;;;;;;;15.85;3.53;;;;;;;40.05;23.71;98418.56;5091509;28;20048;-79
2023/07/21 04:26:37;;;;;;;12.02;2.72;;;;;;;40.44;23.05;98424.22;5075055;28;20398;-86
2023/07/21 04:29:03;;;;;;;9.15;2.80;;;;;;;40.77;22.80;98426.41;5093517;28;20024;-80
2023/07/21 04:31:28;;;;;;;16.63;3.30;;;;;;;41.23;22.07;98419.41;5099101;28;20032;-87
2023/07/21 04:33:58;;;;;;;12.73;3.05;;;;;;;41.57;22.09;98428.63;5075416;28;20057;-81
2023/07/21 04:36:23;;;;;;;14.25;3.13;;;;;;;42.00;21.51;98426.78;5092050;28;20025;-92
2023/07/21 04:38:49;;;;;;;15.40;2.80;;;;;;;42.43;21.07;98431.13;5074633;28;20100;-80
2023/07/21 04:41:14;;;;;;;11.57;2.95;;;;;;;42.83;20.19;98438.84;5091893;28;20032;-76
2023/07/21 04:43:40;;;;;;;20.17;3.13;;;;;;;43.22;19.81;98439.41;5092757;28;20463;-87
2023/07/21 04:46:05;;;;;;;9.77;2.83;;;;;;;43.59;19.63;98449.66;5091554;28;20028;-87
2023/07/21 04:48:31;;;;;;;12.07;3.00;;;;;;;43.98;18.54;98452.84;5074346;28;20035;-79
2023/07/21 04:50:57;;;;;;;12.13;2.60;;;;;;;44.29;18.84;98457.72;5074336;28;20040;-84
2023/07/21 04:53:23;;;;;;;8.37;2.70;;;;;;;44.57;17.85;98459.69;5074317;28;20582;-84
2023/07/21 04:55:49;;;;;;;10.70;2.77;;;;;;;44.92;17.46;98461.84;5091707;28;20269;-87
2023/07/21 04:58:14;;;;;;;10.43;2.58;;;;;;;45.31;17.75;98473.88;5108456;28;20040;-84
2023/07/21 05:00:40;;;;;;;13.63;3.00;;;;;;;45.52;17.50;98464.56;5092800;28;20032;-81
2023/07/21 05:03:05;;;;;;;9.37;2.60;;;;;;;45.86;17.06;98471.31;5073801;28;20047;-78
2023/07/21 05:05:32;;;;;;;8.90;1.97;;;;;;;46.20;16.94;98466.16;5092677;28;20055;-79
2023/07/21 05:07:59;;;;;;;8.23;2.50;;;;;;;46.53;16.40;98466.81;5090767;28;20070;-79
2023/07/21 05:10:25;;;;;;;9.73;2.38;;;;;;;46.85;16.55;98470.22;5092227;28;20024;-80
2023/07/21 05:12:51;;;;;;;11.37;2.20;;;;;;;47.07;16.60;98467.88;5092209;28;20522;-79
2023/07/21 05:15:16;;;;;;;12.17;2.53;;;;;;;47.43;16.04;98476.75;5092449;28;20028;-80
2023/07/21 05:17:42;;;;;;;8.17;2.90;;;;;;;47.67;15.41;98472.84;5091182;28;20024;-80
2023/07/21 05:20:08;;;;;;;9.87;3.10;;;;;;;47.98;15.07;98481.97;5090835;28;20113;-80
2023/07/21 05:22:34;;;;;;;13.13;3.15;;;;;;;48.36;14.32;98477.34;5091665;28;20028;-79
2023/07/21 05:24:59;;;;;;;10.07;3.25;;;;;;;48.67;14.48;98497.50;5091313;28;20525;-79
2023/07/21 05:27:25;;;;;;;11.03;2.87;;;;;;;49.01;14.18;98489.97;5074250;28;20039;-78
2023/07/21 05:29:50;;;;;;;12.57;2.97;;;;;;;49.28;13.70;98495.41;5092195;28;20028;-80
2023/07/21 05:32:16;;;;;;;9.60;2.50;;;;;;;49.50;14.07;98493.63;5091160;28;20028;-79
2023/07/21 05:34:42;;;;;;;9.83;2.57;;;;;;;49.72;13.24;98488.22;5092261;28;20036;-80
2023/07/21 05:37:11;;;;;;;7.10;2.38;;;;;;;49.93;13.93;98493.13;5092238;28;20077;-80
2023/07/21 05:39:36;;;;;;;12.10;2.70;;;;;;;50.10;13.70;98491.63;5090849;28;20097;-80
2023/07/21 05:42:03;;;;;;;9.63;2.33;;;;;;;50.30;13.17;98492.16;5092280;28;20032;-81
2023/07/21 05:44:30;;;;;;;6.90;2.40;;;;;;;50.48;12.84;98490.25;5090315;28;20269;-79
2023/07/21 05:46:55;;;;;;;10.77;2.55;;;;;;;50.58;13.64;98497.03;5090342;28;20075;-80
2023/07/21 05:49:21;;;;;;;;;;;;;;;50.49;13.50;98507.69;5092772;28;20028;-80
2023/07/21 05:51:48;;;;;;;9.00;2.37;;;;;;;50.72;13.39;98512.97;5092147;28;19912;-79
2023/07/21 05:54:13;;;;;;;6.72;2.40;;;;;;;50.88;12.37;98507.03;5092008;28;20641;-81
2023/07/21 05:56:39;;;;;;;;;;;;;;;50.82;13.08;98503.84;5092299;28;20085;-80
2023/07/21 05:59:04;;;;;;;7.97;2.77;;;;;;;50.92;12.26;98505.06;5092063;28;19912;-80
2023/07/21 06:01:30;;;;;;;;;;;;;;;50.78;13.53;98502.25;5091295;28;20411;-80
2023/07/21 06:03:56;;;;;;;7.43;2.55;;;;;;;50.81;13.11;98504.22;5090309;28;20046;-80
2023/07/21 06:06:22;;;;;;;;;;;;;;;50.67;13.24;98507.75;5074092;28;20127;-80
2023/07/21 06:08:48;;;;;;;6.30;2.33;;;;;;;50.78;13.00;98514.13;5073954;28;19920;-81
2023/07/21 06:11:13;;;;;;;;;;;;;;;50.67;12.94;98513.31;5057446;28;20028;-79
2023/07/21 06:13:39;;;;;;;5.87;2.23;;;;;;;50.81;13.30;98507.78;5092132;28;19952;-82
2023/07/21 06:16:04;;;;;;;6.60;2.58;;;;;;;50.81;12.73;98513.34;5091884;28;20036;-81
2023/07/21 06:18:30;;;;;;;5.68;2.20;;;;;;;50.85;12.78;98505.03;5091659;28;20039;-79
2023/07/21 06:20:55;;;;;;;;;;;;;;;50.78;12.95;98511.34;5090977;28;20032;-80
2023/07/21 06:23:22;;;;;;;8.47;3.07;;;;;;;50.87;12.09;98502.66;5073626;28;20014;-79
2023/07/21 06:25:48;;;;;;;6.03;2.50;;;;;;;50.90;13.32;98496.31;5091480;28;20036;-80
2023/07/21 06:28:13;;;;;;;7.50;2.40;;;;;;;50.88;13.39;98504.25;5057075;28;20551;-81
2023/07/21 06:30:38;;;;;;;;;;;;;;;50.58;13.18;98512.88;5060462;28;20071;-80
2023/07/21 06:33:05;;;;;;;5.03;2.80;;;;;;;50.72;13.38;98507.41;5094393;28;19954;-80
2023/07/21 06:35:31;;;;;;;6.03;2.65;;;;;;;50.76;12.92;98508.19;5094298;28;20036;-80
2023/07/21 06:37:57;;;;;;;;;;;;;;;50.62;12.68;98511.72;5094535;28;20082;-79
2023/07/21 06:40:23;;;;;;;8.77;2.35;;;;;;;50.67;12.85;98500.25;5093963;28;20384;-80
2023/07/21 06:42:49;;;;;;;7.07;2.50;;;;;;;50.64;12.51;98509.34;5077409;28;20028;-79
2023/07/21 06:45:15;;;;;;;6.18;2.67;;;;;;;50.57;12.56;98508.53;5094457;28;20031;-80
2023/07/21 06:47:40;;;;;;;6.65;2.45;;;;;;;50.45;12.85;98504.09;5061146;28;20036;-80
2023/07/21 06:50:06;;;;;;;6.35;2.55;;;;;;;50.34;12.91;98512.41;5077303;28;20411;-82
2023/07/21 06:52:32;;;;;;;10.45;2.55;;;;;;;50.25;12.69;98514.75;5094002;28;20119;-80
2023/07/21 06:54:58;;;;;;;6.95;2.35;;;;;;;50.20;13.15;98510.31;5095224;28;20035;-80
2023/07/21 06:57:24;;;;;;;4.68;1.90;;;;;;;50.06;12.42;98504.69;5094027;28;20465;-80
2023/07/21 06:59:49;;;;;;;;;;;;;;;49.83;13.63;98513.25;5094452;28;20028;-80
2023/07/21 07:02:15;;;;;;;6.43;2.15;;;;;;;49.93;13.45;98513.34;5095153;28;19966;-80
2023/07/21 07:04:41;;;;;;;6.15;2.10;;;;;;;49.89;12.46;98514.50;5076178;28;20044;-79
2023/07/21 07:07:07;;;;;;;4.43;2.00;;;;;;;49.64;12.71;98514.31;5094983;28;20493;-80
2023/07/21 07:09:33;;;;;;;7.35;2.10;;;;;;;49.64;12.70;98515.09;5093920;28;20043;-79
2023/07/21 07:11:58;;;;;;;;;;;;;;;49.48;12.61;98518.13;5095232;28;20556;-80
2023/07/21 07:14:24;;;;;;;6.90;1.90;;;;;;;49.44;12.70;98518.09;5094593;28;19977;-79
2023/07/21 07:16:50;;;;;;;4.60;1.85;;;;;;;49.33;12.84;98510.84;5076238;28;20099;-80
2023/07/21 07:19:16;;;;;;;6.80;1.80;;;;;;;49.19;12.36;98515.09;5059769;28;20149;-80
2023/07/21 07:21:42;;;;;;;4.95;2.10;;;;;;;48.93;12.66;98515.22;5093088;28;20032;-79
2023/07/21 07:24:09;;;;;;;5.07;2.07;;;;;;;48.28;12.99;98514.41;5076671;28;20449;-80
2023/07/21 07:26:35;;;;;;;7.78;2.05;;;;;;;48.24;13.00;98517.13;5059960;28;20026;-80
2023/07/21 07:29:03;;;;;;;9.30;2.00;;;;;;;48.04;13.53;98508.16;5059944;28;20493;-80
2023/07/21 07:31:30;;;;;;;8.02;1.90;;;;;;;47.46;13.89;98511.94;5076862;28;20028;-79
2023/07/21 07:33:55;;;;;;;6.72;1.90;;;;;;;47.41;13.70;98518.59;5094311;28;20454;-80
2023/07/21 07:36:21;;;;;;;4.23;2.10;;;;;;;47.16;14.13;98514.56;5075535;28;20036;-80
2023/07/21 07:38:47;;;;;;;5.20;2.20;;;;;;;47.28;14.42;98515.19;5075508;28;20101;-79
2023/07/21 07:41:13;;;;;;;;;;;;;;;47.24;14.37;98528.16;5093176;28;20024;-79
2023/07/21 07:43:38;;;;;;;;;;;;;;;47.02;14.74;98521.44;5093516;28;19908;-79
2023/07/21 07:46:07;;;;;;;4.03;2.00;;;;;;;46.78;14.41;98513.44;5094211;28;19912;-78
2023/07/21 07:48:35;;;;;;;5.07;2.15;;;;;;;46.45;15.25;98511.97;5093290;28;20024;-79
2023/07/21 07:51:02;;;;;;;7.30;2.10;;;;;;;46.40;14.96;98524.09;5075810;28;20075;-79
2023/07/21 07:53:28;;;;;;;5.70;2.05;;;;;;;46.47;15.21;98527.03;5092524;28;20028;-79
2023/07/21 07:55:54;;;;;;;9.25;2.35;;;;;;;46.48;15.40;98523.09;5075796;28;20024;-79
2023/07/21 07:58:19;;;;;;;7.00;2.17;;;;;;;46.55;15.61;98530.75;5075815;28;20032;-79
2023/07/21 08:00:45;;;;;;;6.63;2.57;;;;;;;46.51;15.21;98530.66;5092820;28;20054;-80
2023/07/21 08:03:11;;;;;;;7.00;2.43;;;;;;;46.00;15.69;98539.75;5092699;28;20031;-80
2023/07/21 08:05:37;;;;;;;8.53;2.13;;;;;;;46.04;15.94;98537.09;5093812;28;20067;-79
2023/07/21 08:08:03;;;;;;;6.47;2.28;;;;;;;46.11;16.25;98539.22;5077086;28;20031;-80
2023/07/21 08:10:29;;;;;;;;;;;;;;;45.81;16.18;98539.69;5077212;28;20044;-80
2023/07/21 08:12:58;;;;;;;7.90;2.55;;;;;;;45.60;16.64;98531.69;5094587;28;19908;-79
2023/07/21 08:15:23;;;;;;;9.02;2.50;;;;;;;45.40;16.51;98539.06;5077525;28;20032;-79
2023/07/21 08:17:49;;;;;;;6.57;2.50;;;;;;;45.24;16.56;98533.50;5077593;28;20031;-80
2023/07/21 08:20:16;;;;;;;8.70;2.45;;;;;;;45.09;17.00;98544.16;5092108;28;20111;-79
2023/07/21 08:22:42;;;;;;;6.60;2.42;;;;;;;44.79;17.16;98543.69;5075145;28;20035;-79
2023/07/21 08:25:07;;;;;;;4.83;2.37;;;;;;;44.93;17.02;98549.59;5092193;28;20036;-79
2023/07/21 08:27:35;;;;;;;6.47;2.47;;;;;;;44.95;16.76;98543.72;5074607;28;20028;-79
2023/07/21 08:30:01;;;;;;;5.28;2.42;;;;;;;44.70;17.30;98543.81;5091947;28;20028;-79
2023/07/21 08:32:27;;;;;;;8.27;2.43;;;;;;;44.55;17.47;98544.53;5074920;28;20032;-79
2023/07/21 08:34:54;;;;;;;7.43;2.47;;;;;;;44.35;17.58;98558.09;5092012;28;20031;-77
2023/07/21 08:37:19;;;;;;;4.80;2.10;;;;;;;44.21;17.56;98555.72;5075193;28;20047;-79
2023/07/21 08:39:45;;;;;;;4.93;2.33;;;;;;;44.09;17.80;98556.53;5074686;28;20035;-80
2023/07/21 08:42:10;;;;;;;7.70;2.53;;;;;;;43.97;17.88;98551.03;5074926;28;20028;-77
2023/07/21 08:44:37;;;;;;;6.87;2.53;;;;;;;43.84;18.26;98569.47;5075021;28;20145;-79
2023/07/21 08:47:02;;;;;;;9.90;2.72;;;;;;;43.54;18.21;98550.41;5091627;28;20036;-77
2023/07/21 08:49:28;;;;;;;12.50;2.60;;;;;;;43.09;18.73;98556.66;5074732;28;20469;-79
2023/07/21 08:51:53;;;;;;;6.30;2.60;;;;;;;42.77;19.16;98560.97;5074362;28;20402;-77
2023/07/21 08:54:19;;;;;;;7.50;2.47;;;;;;;42.84;19.41;98562.03;5058004;28;20581;-78
2023/07/21 08:56:44;;;;;;;6.57;2.50;;;;;;;42.72;19.75;98561.97;5074885;28;20490;-79
2023/07/21 08:59:10;;;;;;;8.97;2.70;;;;;;;42.25;20.05;98567.59;5074703;28;20145;-79
2023/07/21 09:01:35;;;;;;;8.93;3.10;;;;;;;42.16;20.23;98564.88;5092512;28;20085;-79
2023/07/21 09:04:01;;;;;;;8.67;2.60;;;;;;;42.12;20.25;98555.72;5091129;28;20530;-79
2023/07/21 09:06:26;;;;;;;9.20;2.97;;;;;;;41.79;20.90;98581.00;5074555;28;20035;-79
2023/07/21 09:08:53;;;;;;;10.93;3.50;;;;;;;41.52;21.17;98576.72;5091288;28;20418;-79
2023/07/21 09:11:18;;;;;;;7.72;3.10;;;;;;;41.56;20.94;98567.53;5074327;28;20039;-79
2023/07/21 09:13:56;;;;;;;5.85;3.00;;;;;;;41.73;20.73;98571.34;5074247;28;20036;-79
2023/07/21 09:16:22;;;;;;;5.25;2.70;;;;;;;41.79;20.84;98572.78;5091086;28;20032;-80
2023/07/21 09:18:48;;;;;;;5.83;3.00;;;;;;;41.88;20.83;98570.81;5074053;28;20054;-80
2023/07/21 09:21:20;;;;;;;9.60;2.92;;;;;;;41.88;20.96;98578.25;5074296;28;20024;-80
2023/07/21 09:23:47;;;;;;;7.70;2.97;;;;;;;41.97;20.33;98573.50;5091349;28;20036;-81
2023/07/21 09:26:13;;;;;;;7.10;3.03;;;;;;;42.02;20.13;98584.31;5073918;28;20410;-81
2023/07/21 09:28:40;;;;;;;8.27;3.15;;;;;;;41.76;20.18;98578.94;5073864;28;20236;-81
2023/07/21 09:31:06;;;;;;;6.97;2.90;;;;;;;41.52;20.20;98582.19;5090834;28;20079;-81
2023/07/21 09:33:37;;;;;;;8.35;2.85;;;;;;;41.39;19.81;98575.78;5057232;28;20481;-80
2023/07/21 09:36:07;;;;;;;6.88;2.80;;;;;;;41.38;20.19;98574.97;5091012;28;20096;-79
2023/07/21 09:38:34;;;;;;;7.07;3.00;;;;;;;41.23;20.08;98575.47;5074197;28;20391;-80
2023/07/21 09:41:06;;;;;;;7.80;3.15;;;;;;;41.17;20.36;98580.31;5090789;28;20110;-80
2023/07/21 09:43:31;;;;;;;4.82;2.45;;;;;;;41.02;20.62;98572.56;5074469;28;20035;-80
2023/07/21 09:46:01;;;;;;;7.85;2.90;;;;;;;41.06;20.72;98559.88;5073884;28;20463;-79
2023/07/21 09:48:30;;;;;;;5.53;2.63;;;;;;;41.09;20.94;98572.91;5090219;28;20036;-80
2023/07/21 09:51:00;;;;;;;6.75;2.53;;;;;;;40.81;21.01;98559.53;5090746;28;20028;-78
2023/07/21 09:53:42;;;;;;;6.68;2.78;;;;;;;40.80;20.81;98568.88;5090846;28;20032;-79
2023/07/21 09:56:09;;;;;;;9.05;2.80;;;;;;;40.63;20.73;98560.66;5090752;28;20105;-80
2023/07/21 09:58:41;;;;;;;5.68;2.80;;;;;;;40.42;21.04;98557.72;5091101;28;20078;-79
2023/07/21 10:01:07;;;;;;;6.13;2.85;;;;;;;40.38;20.69;98554.81;5077177;28;20024;-81
2023/07/21 10:03:33;;;;;;;6.57;2.67;;;;;;;40.34;21.00;98556.56;5075084;28;20035;-79
2023/07/21 10:06:01;;;;;;;4.20;2.78;;;;;;;40.34;20.81;98554.63;5094540;28;20032;-79
2023/07/21 10:08:36;;;;;;;6.90;2.80;;;;;;;40.05;20.90;98557.94;5094504;28;20047;-79
2023/07/21 10:11:02;;;;;;;10.07;2.90;;;;;;;39.82;21.41;98562.63;5093957;28;20036;-80
2023/07/21 10:13:28;;;;;;;8.75;3.33;;;;;;;39.70;21.60;98551.50;5077702;28;20024;-79
2023/07/21 10:16:05;;;;;;;6.30;2.97;;;;;;;39.63;21.29;98557.41;5077406;28;20107;-79
2023/07/21 10:18:30;;;;;;;8.02;2.53;;;;;;;39.65;21.42;98557.91;5093775;28;20046;-79
2023/07/21 10:20:56;;;;;;;7.03;2.63;;;;;;;39.51;21.61;98555.25;5060657;28;20115;-78
2023/07/21 10:23:26;;;;;;;5.15;2.53;;;;;;;39.54;21.31;98559.31;5060291;28;20382;-80
2023/07/21 10:25:52;;;;;;;9.13;2.47;;;;;;;39.37;21.36;98563.50;5093529;28;20047;-77
2023/07/21 10:28:39;;;;;;;6.93;2.85;;;;;;;39.13;21.48;98554.84;5095258;28;20099;-79
2023/07/21 10:34:13;;;;;;;5.32;2.50;;;;;;;38.99;21.83;98549.44;5095047;28;20622;-78
2023/07/21 10:36:45;;;;;;;5.68;3.03;;;;;;;38.97;21.84;98551.66;5110674;28;20469;-79
2023/07/21 10:39:12;;;;;;;6.97;2.70;;;;;;;38.69;22.25;98540.84;5093887;28;20028;-78
2023/07/21 10:41:41;;;;;;;6.75;2.60;;;;;;;38.59;21.94;98549.22;5093322;28;20472;-78
2023/07/21 10:44:08;;;;;;;5.05;2.50;;;;;;;38.54;22.00;98547.44;5093329;28;20039;-78
2023/07/21 10:46:40;;;;;;;8.48;2.50;;;;;;;38.28;22.33;98544.44;5076703;28;20062;-78
2023/07/21 10:49:07;;;;;;;5.60;2.70;;;;;;;38.04;22.44;98548.16;5076649;28;20028;-79
2023/07/21 10:51:32;;;;;;;5.00;2.63;;;;;;;38.02;22.56;98542.22;5093232;28;20028;-79
2023/07/21 10:53:58;;;;;;;7.70;2.70;;;;;;;38.00;22.34;98537.06;5059887;28;20327;-79
2023/07/21 10:56:23;;;;;;;4.88;2.45;;;;;;;37.99;22.16;98545.53;5060064;28;20028;-77
2023/07/21 10:58:49;;;;;;;6.38;2.53;;;;;;;37.92;21.94;98548.66;5076815;28;20042;-79
2023/07/21 11:01:19;;;;;;;6.65;2.65;;;;;;;37.83;22.01;98543.09;5076503;28;20032;-79
2023/07/21 11:03:46;;;;;;;6.45;2.42;;;;;;;37.79;21.82;98525.75;5076010;28;20044;-79
2023/07/21 11:06:11;;;;;;;;;;;;;;;37.83;22.37;98536.88;5076811;28;20169;-78
2023/07/21 11:08:37;;;;;;;5.57;2.70;;;;;;;37.79;22.08;98530.41;5075381;28;19961;-79
2023/07/21 11:11:02;;;;;;;5.75;2.50;;;;;;;37.76;22.54;98537.25;5093132;28;20073;-80
2023/07/21 11:13:28;;;;;;;6.85;2.70;;;;;;;37.67;22.15;98539.03;5093587;28;20410;-78
2023/07/21 11:15:53;;;;;;;5.03;2.80;;;;;;;37.56;21.64;98535.69;5075230;28;20043;-79
2023/07/21 11:18:19;;;;;;;6.85;2.58;;;;;;;37.25;21.88;98538.94;5076558;28;20024;-80
2023/07/21 11:20:53;;;;;;;6.15;2.90;;;;;;;37.09;22.34;98535.63;5076127;28;20051;-80
2023/07/21 11:23:23;;;;;;;5.97;2.97;;;;;;;37.08;22.58;98519.59;5076032;28;20044;-77
2023/07/21 11:26:06;;;;;;;5.25;2.70;;;;;;;37.14;22.55;98525.78;5059176;28;20024;-78
2023/07/21 11:28:32;;;;;;;6.22;2.47;;;;;;;36.86;22.67;98514.78;5075710;28;20036;-78
2023/07/21 11:31:00;;;;;;;6.05;2.80;;;;;;;36.93;22.19;98515.25;5076241;28;20024;-78
2023/07/21 11:33:45;;;;;;;5.20;2.40;;;;;;;37.00;21.95;98515.66;5076441;28;20071;-77